createdAt,value
2019-05-21T00:02:18.787Z,100878.41
2019-05-21T00:04:50.104Z,100875.28
2019-05-21T00:07:21.409Z,100879.83
2019-05-21T00:09:52.777Z,100889.52
2019-05-21T00:12:24.050Z,100874.13
2019-05-21T00:14:55.190Z,100883.36
2019-05-21T00:17:26.552Z,100881.00
2019-05-21T00:19:57.725Z,100884.08
2019-05-21T00:22:28.990Z,100877.41
2019-05-21T00:25:00.379Z,100881.66
2019-05-21T00:27:31.869Z,100879.95
2019-05-21T00:30:39.727Z,100883.24
2019-05-21T00:33:47.781Z,100883.42
2019-05-21T00:37:00.346Z,100885.09
2019-05-21T00:40:09.565Z,100885.04
2019-05-21T00:42:44.214Z,100885.27
2019-05-21T00:45:15.463Z,100884.80
2019-05-21T00:47:46.838Z,100889.67
2019-05-21T00:50:18.159Z,100895.09
2019-05-21T00:52:49.381Z,100883.44
2019-05-21T00:55:20.655Z,100887.95
2019-05-21T00:57:51.949Z,100883.38
2019-05-21T01:00:23.309Z,100886.70
2019-05-21T01:02:54.541Z,100879.11
2019-05-21T01:05:25.823Z,100885.08
2019-05-21T01:07:57.116Z,100887.95
2019-05-21T01:10:28.713Z,100880.70
2019-05-21T01:12:59.976Z,100880.03
2019-05-21T01:15:31.299Z,100878.73
2019-05-21T01:18:02.575Z,100872.39
2019-05-21T01:20:33.822Z,100874.66
2019-05-21T01:23:05.025Z,100878.73
2019-05-21T01:25:36.249Z,100870.55
2019-05-21T01:28:07.522Z,100863.30
2019-05-21T01:30:38.774Z,100873.45
2019-05-21T01:33:10.036Z,100873.12
2019-05-21T01:35:41.354Z,100882.98
2019-05-21T01:38:12.789Z,100872.18
2019-05-21T01:40:44.023Z,100876.38
2019-05-21T01:43:15.389Z,100880.11
2019-05-21T01:45:46.738Z,100879.50
2019-05-21T01:48:18.083Z,100880.16
2019-05-21T01:50:49.364Z,100879.91
2019-05-21T01:53:20.713Z,100877.10
2019-05-21T01:55:51.998Z,100876.84
2019-05-21T01:58:23.266Z,100865.70
2019-05-21T02:00:54.535Z,100866.57
2019-05-21T02:03:26.012Z,100865.64
2019-05-21T02:05:57.397Z,100867.50
2019-05-21T02:08:28.790Z,100865.81
2019-05-21T02:11:00.012Z,100873.33
2019-05-21T02:13:31.307Z,100872.88
2019-05-21T02:16:02.813Z,100868.82
2019-05-21T02:18:34.199Z,100871.58
2019-05-21T02:21:05.502Z,100875.39
2019-05-21T02:23:36.970Z,100875.58
2019-05-21T02:26:08.550Z,100879.12
2019-05-21T02:28:39.904Z,100879.04
2019-05-21T02:31:11.231Z,100876.53
2019-05-21T02:33:42.708Z,100877.09
2019-05-21T02:36:13.953Z,100879.55
2019-05-21T02:38:45.259Z,100874.39
2019-05-21T02:41:16.502Z,100872.48
2019-05-21T02:43:47.881Z,100871.58
2019-05-21T02:46:19.118Z,100874.04
2019-05-21T02:48:50.650Z,100879.50
2019-05-21T02:51:21.874Z,100884.05
2019-05-21T02:53:53.262Z,100890.59
2019-05-21T02:56:24.537Z,100893.47
2019-05-21T02:58:55.969Z,100888.35
2019-05-21T03:01:30.076Z,100894.30
2019-05-21T03:04:01.452Z,100893.10
2019-05-21T03:06:32.879Z,100894.90
2019-05-21T03:09:05.596Z,100893.64
2019-05-21T03:11:37.028Z,100898.22
2019-05-21T03:14:08.545Z,100898.00
2019-05-21T03:16:40.107Z,100903.56
2019-05-21T03:19:11.363Z,100905.04
2019-05-21T03:21:42.663Z,100901.08
2019-05-21T03:24:13.966Z,100903.98
2019-05-21T03:26:45.190Z,100898.77
2019-05-21T03:29:16.435Z,100897.82
2019-05-21T03:31:47.795Z,100899.08
2019-05-21T03:34:18.969Z,100896.51
2019-05-21T03:36:50.276Z,100899.25
2019-05-21T03:39:21.482Z,100898.09
2019-05-21T03:41:52.673Z,100901.80
2019-05-21T03:44:24.026Z,100895.73
2019-05-21T03:46:55.872Z,100901.58
2019-05-21T03:49:27.102Z,100901.73
2019-05-21T03:51:58.415Z,100898.27
2019-05-21T03:54:29.658Z,100904.60
2019-05-21T03:57:00.895Z,100912.95
2019-05-21T03:59:32.147Z,100911.09
2019-05-21T04:02:03.295Z,100914.23
2019-05-21T04:04:34.709Z,100911.70
2019-05-21T04:07:05.902Z,100912.20
2019-05-21T04:09:37.134Z,100920.54
2019-05-21T04:12:08.473Z,100915.82
2019-05-21T04:14:53.566Z,100919.78
2019-05-21T04:17:26.514Z,100914.44
2019-05-21T04:19:57.636Z,100879.56
2019-05-21T04:22:28.834Z,100924.61
2019-05-21T04:25:00.661Z,100925.45
2019-05-21T04:27:31.874Z,100918.00
2019-05-21T04:30:03.472Z,100932.66
2019-05-21T04:32:34.816Z,100940.27
2019-05-21T04:35:06.864Z,100933.97
2019-05-21T04:37:38.151Z,100932.20
2019-05-21T04:40:09.802Z,100935.47
2019-05-21T04:42:41.012Z,100937.83
2019-05-21T04:45:12.670Z,100931.61
2019-05-21T04:47:44.052Z,100923.02
2019-05-21T04:50:15.351Z,100922.42
2019-05-21T04:52:46.815Z,100909.33
2019-05-21T04:55:18.179Z,100915.27
2019-05-21T04:57:49.538Z,100916.75
2019-05-21T05:00:20.722Z,100918.13
2019-05-21T05:02:51.947Z,100914.81
2019-05-21T05:05:23.182Z,100912.46
2019-05-21T05:07:54.512Z,100914.61
2019-05-21T05:10:25.818Z,100918.69
2019-05-21T05:12:57.118Z,100906.44
2019-05-21T05:15:28.463Z,100912.23
2019-05-21T05:17:59.903Z,100911.00
2019-05-21T05:20:31.170Z,100906.48
2019-05-21T05:23:02.741Z,100904.34
2019-05-21T05:25:34.247Z,100908.84
2019-05-21T05:28:05.523Z,100907.02
2019-05-21T05:30:37.025Z,100899.97
2019-05-21T05:33:08.421Z,100901.30
2019-05-21T05:35:40.019Z,100899.45
2019-05-21T05:38:11.503Z,100883.61
2019-05-21T05:40:42.798Z,100892.98
2019-05-21T05:43:14.372Z,100884.53
2019-05-21T05:45:45.777Z,100893.53
2019-05-21T05:48:17.440Z,100898.16
2019-05-21T05:50:53.221Z,100896.08
2019-05-21T05:53:24.642Z,100890.81
2019-05-21T05:55:56.051Z,100885.70
2019-05-21T05:58:27.401Z,100887.43
2019-05-21T06:00:58.919Z,100888.69
2019-05-21T06:03:30.489Z,100884.96
2019-05-21T06:06:01.963Z,100889.84
2019-05-21T06:08:33.264Z,100894.53
2019-05-21T06:11:04.604Z,100880.83
2019-05-21T06:13:35.958Z,100886.03
2019-05-21T06:16:07.289Z,100885.55
2019-05-21T06:18:39.780Z,100887.94
2019-05-21T06:21:11.203Z,100875.03
2019-05-21T06:23:42.682Z,100883.44
2019-05-21T06:26:13.970Z,100879.36
2019-05-21T06:28:45.414Z,100874.53
2019-05-21T06:31:16.866Z,100882.16
2019-05-21T06:33:48.241Z,100869.34
2019-05-21T06:36:19.680Z,100882.80
2019-05-21T06:38:50.987Z,100871.45
2019-05-21T06:41:22.234Z,100879.20
2019-05-21T06:43:53.704Z,100877.68
2019-05-21T06:46:25.112Z,100879.11
2019-05-21T06:48:56.484Z,100883.81
2019-05-21T06:51:28.622Z,100887.20
2019-05-21T06:53:59.943Z,100883.05
2019-05-21T06:56:31.349Z,100885.73
2019-05-21T06:59:03.766Z,100893.89
2019-05-21T07:01:35.074Z,100892.36
2019-05-21T07:04:06.410Z,100891.68
2019-05-21T07:06:37.851Z,100896.16
2019-05-21T07:09:09.298Z,100883.05
2019-05-21T07:11:40.619Z,100892.61
2019-05-21T07:14:11.960Z,100894.16
2019-05-21T07:16:43.083Z,100887.75
2019-05-21T07:19:14.298Z,100890.59
2019-05-21T07:21:45.772Z,100889.31
2019-05-21T07:24:17.135Z,100894.00
2019-05-21T07:26:48.449Z,100895.14
2019-05-21T07:29:19.928Z,100886.24
2019-05-21T07:31:51.142Z,100885.72
2019-05-21T07:34:22.457Z,100889.72
2019-05-21T07:36:53.865Z,100883.92
2019-05-21T07:39:25.370Z,100882.41
2019-05-21T07:41:56.904Z,100883.26
2019-05-21T07:44:28.392Z,100882.44
2019-05-21T07:46:59.702Z,100882.57
2019-05-21T07:49:31.157Z,100876.77
2019-05-21T07:52:02.543Z,100877.51
2019-05-21T07:54:33.824Z,100879.38
2019-05-21T07:57:05.200Z,100881.92
2019-05-21T07:59:36.620Z,100892.52
2019-05-21T08:02:08.029Z,100878.48
2019-05-21T08:04:39.382Z,100872.22
2019-05-21T08:07:10.828Z,100868.22
2019-05-21T08:09:42.272Z,100874.37
2019-05-21T08:12:36.886Z,100863.78
2019-05-21T08:14:46.231Z,100870.44
2019-05-21T08:17:17.227Z,100871.91
2019-05-21T08:19:48.457Z,100865.16
2019-05-21T08:22:19.761Z,100862.41
2019-05-21T08:24:51.057Z,100863.56
2019-05-21T08:27:22.447Z,100865.81
2019-05-21T08:29:53.781Z,100851.09
2019-05-21T08:32:24.940Z,100854.81
2019-05-21T08:34:56.392Z,100855.33
2019-05-21T08:37:27.825Z,100851.98
2019-05-21T08:39:59.274Z,100842.86
2019-05-21T08:42:30.744Z,100845.37
2019-05-21T08:45:02.915Z,100842.80
2019-05-21T08:47:34.874Z,100844.19
2019-05-21T08:50:08.124Z,100846.64
2019-05-21T08:52:39.479Z,100843.63
2019-05-21T08:55:10.769Z,100832.42
2019-05-21T08:57:42.309Z,100831.53
2019-05-21T09:00:16.724Z,100814.48
2019-05-21T09:02:48.135Z,100799.69
2019-05-21T09:05:20.437Z,100809.17
2019-05-21T09:07:53.823Z,100804.25
2019-05-21T09:10:24.809Z,100809.77
2019-05-21T09:12:55.966Z,100815.93
2019-05-21T09:15:27.291Z,100810.54
2019-05-21T09:17:58.742Z,100820.56
2019-05-21T09:20:30.399Z,100811.92
2019-05-21T09:23:01.941Z,100819.73
2019-05-21T09:25:33.471Z,100798.14
2019-05-21T09:28:05.062Z,100800.44
2019-05-21T09:30:36.407Z,100811.13
2019-05-21T09:33:07.734Z,100811.90
2019-05-21T09:35:38.925Z,100798.27
2019-05-21T09:38:10.146Z,100815.00
2019-05-21T09:40:41.415Z,100807.59
2019-05-21T09:43:12.734Z,100806.05
2019-05-21T09:45:44.482Z,100805.80
2019-05-21T09:48:15.798Z,100812.60
2019-05-21T09:50:47.138Z,100801.81
2019-05-21T09:53:18.509Z,100806.13
2019-05-21T09:55:49.960Z,100807.83
2019-05-21T09:58:22.950Z,100813.39
2019-05-21T10:00:56.021Z,100811.23
2019-05-21T10:03:37.357Z,100812.31
2019-05-21T10:06:09.323Z,100815.90
2019-05-21T10:08:40.624Z,100807.64
2019-05-21T10:11:12.031Z,100807.69
2019-05-21T10:13:43.595Z,100803.84
2019-05-21T10:16:15.022Z,100804.31
2019-05-21T10:18:46.352Z,100799.37
2019-05-21T10:21:17.654Z,100806.07
2019-05-21T10:23:49.074Z,100797.76
2019-05-21T10:26:20.446Z,100799.06
2019-05-21T10:28:51.852Z,100799.42
2019-05-21T10:31:23.324Z,100792.48
2019-05-21T10:33:54.862Z,100790.48
2019-05-21T10:36:26.328Z,100775.50
2019-05-21T10:38:57.616Z,100782.84
2019-05-21T10:41:28.976Z,100771.41
2019-05-21T10:44:00.268Z,100770.04
2019-05-21T10:46:32.631Z,100778.86
2019-05-21T10:49:04.400Z,100786.20
2019-05-21T10:51:35.828Z,100770.59
2019-05-21T10:54:07.560Z,100770.53
2019-05-21T10:56:47.724Z,100780.61
2019-05-21T10:59:12.254Z,100777.73
2019-05-21T11:01:57.654Z,100782.66
2019-05-21T11:04:30.674Z,100783.95
2019-05-21T11:07:01.970Z,100782.05
2019-05-21T11:09:33.892Z,100777.52
2019-05-21T11:12:07.095Z,100780.66
2019-05-21T11:14:38.356Z,100777.22
2019-05-21T11:17:12.512Z,100773.47
2019-05-21T11:19:43.832Z,100769.72
2019-05-21T11:22:15.313Z,100772.19
2019-05-21T11:24:46.699Z,100775.98
2019-05-21T11:27:18.439Z,100766.81
2019-05-21T11:29:49.763Z,100767.85
2019-05-21T11:32:21.095Z,100761.14
2019-05-21T11:34:52.531Z,100756.43
2019-05-21T11:37:24.411Z,100759.83
2019-05-21T11:39:55.795Z,100749.94
2019-05-21T11:42:27.186Z,100752.20
2019-05-21T11:44:58.651Z,100750.81
2019-05-21T11:47:30.125Z,100734.80
2019-05-21T11:50:01.845Z,100738.64
2019-05-21T11:52:33.340Z,100739.14
2019-05-21T11:55:05.857Z,100737.08
2019-05-21T11:57:37.370Z,100727.84
2019-05-21T12:00:10.364Z,100721.65
2019-05-21T12:02:41.175Z,100721.48
2019-05-21T12:05:12.519Z,100727.67
2019-05-21T12:07:44.159Z,100716.09
2019-05-21T12:10:15.430Z,100712.03
2019-05-21T12:12:46.938Z,100705.87
2019-05-21T12:15:19.138Z,100708.31
2019-05-21T12:17:50.593Z,100707.13
2019-05-21T12:20:37.142Z,100694.78
2019-05-21T12:23:14.863Z,100700.90
2019-05-21T12:25:46.446Z,100679.56
2019-05-21T12:28:17.804Z,100691.75
2019-05-21T12:30:49.121Z,100674.92
2019-05-21T12:33:20.486Z,100666.88
2019-05-21T12:35:51.813Z,100678.79
2019-05-21T12:38:23.190Z,100690.34
2019-05-21T12:40:54.743Z,100680.31
2019-05-21T12:43:26.264Z,100693.76
2019-05-21T12:45:57.598Z,100692.93
2019-05-21T12:48:28.893Z,100689.52
2019-05-21T12:51:00.259Z,100683.98
2019-05-21T12:53:31.717Z,100674.75
2019-05-21T12:56:03.247Z,100663.90
2019-05-21T12:58:34.626Z,100674.32
2019-05-21T13:01:06.435Z,100682.50
2019-05-21T13:03:37.798Z,100672.33
2019-05-21T13:06:09.326Z,100675.29
2019-05-21T13:08:40.666Z,100655.55
2019-05-21T13:11:12.057Z,100665.98
2019-05-21T13:13:43.664Z,100657.16
2019-05-21T13:16:15.053Z,100651.30
2019-05-21T13:18:46.548Z,100650.63
2019-05-21T13:21:17.889Z,100650.37
2019-05-21T13:23:49.438Z,100657.01
2019-05-21T13:26:20.734Z,100654.55
2019-05-21T13:28:52.144Z,100646.52
2019-05-21T13:31:23.468Z,100647.58
2019-05-21T13:33:55.041Z,100623.57
2019-05-21T13:36:26.390Z,100645.95
2019-05-21T13:38:58.058Z,100641.40
2019-05-21T13:41:29.628Z,100643.64
2019-05-21T13:44:01.102Z,100638.60
2019-05-21T13:46:35.591Z,100640.17
2019-05-21T13:49:04.960Z,100639.51
2019-05-21T13:51:36.207Z,100643.93
2019-05-21T13:54:07.502Z,100639.66
2019-05-21T13:56:38.840Z,100644.31
2019-05-21T13:59:10.324Z,100637.52
2019-05-21T14:01:42.811Z,100638.52
2019-05-21T14:04:14.579Z,100649.05
2019-05-21T14:06:47.735Z,100638.87
2019-05-21T14:09:18.302Z,100626.10
2019-05-21T14:11:49.454Z,100623.73
2019-05-21T14:14:20.973Z,100629.93
2019-05-21T14:16:52.347Z,100628.16
2019-05-21T14:19:23.790Z,100630.58
2019-05-21T14:21:55.157Z,100632.59
2019-05-21T14:24:26.645Z,100628.22
2019-05-21T14:26:58.089Z,100624.20
2019-05-21T14:29:29.592Z,100601.92
2019-05-21T14:32:00.968Z,100614.83
2019-05-21T14:34:32.457Z,100603.57
2019-05-21T14:37:03.755Z,100606.76
2019-05-21T14:39:35.203Z,100617.08
2019-05-21T14:42:06.554Z,100623.80
2019-05-21T14:44:38.021Z,100617.14
2019-05-21T14:47:09.564Z,100610.95
2019-05-21T14:49:40.975Z,100601.72
2019-05-21T14:52:13.171Z,100596.96
2019-05-21T14:54:44.536Z,100598.54
2019-05-21T14:57:16.098Z,100599.92
2019-05-21T14:59:47.537Z,100604.53
2019-05-21T15:02:18.887Z,100607.51
2019-05-21T15:04:50.354Z,100602.81
2019-05-21T15:07:21.849Z,100599.84
2019-05-21T15:09:53.721Z,100596.57
2019-05-21T15:12:25.222Z,100599.61
2019-05-21T15:14:56.579Z,100599.49
2019-05-21T15:17:27.904Z,100605.65
2019-05-21T15:20:00.934Z,100595.91
2019-05-21T15:22:31.727Z,100590.36
2019-05-21T15:25:03.200Z,100593.13
2019-05-21T15:27:35.072Z,100585.31
2019-05-21T15:30:07.677Z,100594.36
2019-05-21T15:32:39.224Z,100592.79
2019-05-21T15:35:10.914Z,100590.70
2019-05-21T15:37:44.949Z,100585.50
2019-05-21T15:40:16.222Z,100586.27
2019-05-21T15:42:52.453Z,100587.58
2019-05-21T15:45:20.145Z,100584.80
2019-05-21T15:47:51.579Z,100588.48
2019-05-21T15:50:22.895Z,100592.30
2019-05-21T15:52:54.794Z,100596.25
2019-05-21T15:55:27.241Z,100588.02
2019-05-21T15:57:58.638Z,100594.27
2019-05-21T16:00:29.959Z,100594.31
2019-05-21T16:03:01.390Z,100592.53
2019-05-21T16:05:33.193Z,100584.12
2019-05-21T16:08:04.662Z,100585.34
2019-05-21T16:10:37.099Z,100591.42
2019-05-21T16:13:08.520Z,100586.48
2019-05-21T16:15:39.881Z,100587.95
2019-05-21T16:18:11.330Z,100599.23
2019-05-21T16:20:42.978Z,100599.01
2019-05-21T16:23:14.258Z,100591.94
2019-05-21T16:25:45.685Z,100587.61
2019-05-21T16:28:16.849Z,100586.30
2019-05-21T16:30:48.391Z,100592.76
2019-05-21T16:33:19.843Z,100592.41
2019-05-21T16:35:51.091Z,100595.17
2019-05-21T16:38:22.797Z,100598.38
2019-05-21T16:40:54.088Z,100599.58
2019-05-21T16:43:26.567Z,100597.75
2019-05-21T16:45:58.089Z,100596.09
2019-05-21T16:48:29.573Z,100597.59
2019-05-21T16:51:00.913Z,100589.95
2019-05-21T16:53:32.395Z,100593.25
2019-05-21T16:56:03.621Z,100595.10
2019-05-21T16:58:34.932Z,100591.45
2019-05-21T17:01:07.992Z,100587.62
2019-05-21T17:03:39.326Z,100589.66
2019-05-21T17:06:10.923Z,100600.79
2019-05-21T17:08:42.308Z,100598.47
2019-05-21T17:11:13.609Z,100591.23
2019-05-21T17:13:44.956Z,100593.33
2019-05-21T17:16:16.458Z,100594.90
2019-05-21T17:18:48.091Z,100596.58
2019-05-21T17:21:19.440Z,100597.29
2019-05-21T17:23:50.904Z,100592.39
2019-05-21T17:26:23.387Z,100594.23
2019-05-21T17:28:55.026Z,100597.95
2019-05-21T17:31:26.388Z,100592.03
2019-05-21T17:33:58.220Z,100594.64
2019-05-21T17:36:29.665Z,100593.13
2019-05-21T17:39:02.158Z,100597.77
2019-05-21T17:41:33.809Z,100601.38
2019-05-21T17:44:05.408Z,100598.69
2019-05-21T17:46:36.762Z,100601.90
2019-05-21T17:49:08.302Z,100603.97
2019-05-21T17:51:39.679Z,100605.97
2019-05-21T17:54:11.108Z,100604.97
2019-05-21T17:56:42.648Z,100605.58
2019-05-21T17:59:14.117Z,100608.79
2019-05-21T18:01:45.592Z,100612.07
2019-05-21T18:04:17.223Z,100615.75
2019-05-21T18:06:49.182Z,100613.55
2019-05-21T18:09:22.456Z,100614.30
2019-05-21T18:11:54.562Z,100615.37
2019-05-21T18:14:27.087Z,100609.55
2019-05-21T18:16:59.251Z,100609.90
2019-05-21T18:19:31.036Z,100609.55
2019-05-21T18:22:04.029Z,100609.53
2019-05-21T18:24:35.980Z,100612.81
2019-05-21T18:27:07.735Z,100614.43
2019-05-21T18:29:39.326Z,100609.34
2019-05-21T18:32:10.668Z,100606.69
2019-05-21T18:34:42.261Z,100605.95
2019-05-21T18:37:13.704Z,100603.80
2019-05-21T18:39:45.055Z,100604.78
2019-05-21T18:42:22.180Z,100599.08
2019-05-21T18:44:49.697Z,100597.45
2019-05-21T18:47:22.081Z,100599.72
2019-05-21T18:49:53.473Z,100610.28
2019-05-21T18:52:25.007Z,100608.52
2019-05-21T18:54:56.566Z,100608.98
2019-05-21T18:57:27.801Z,100609.86
2019-05-21T18:59:59.352Z,100610.95
2019-05-21T19:02:30.738Z,100615.53
2019-05-21T19:05:02.181Z,100614.73
2019-05-21T19:07:34.547Z,100595.16
2019-05-21T19:10:08.638Z,100608.92
2019-05-21T19:12:42.731Z,100608.06
2019-05-21T19:15:16.314Z,100607.66
2019-05-21T19:17:47.990Z,100604.50
2019-05-21T19:20:19.556Z,100610.65
2019-05-21T19:22:51.020Z,100601.36
2019-05-21T19:25:22.492Z,100605.67
2019-05-21T19:27:53.843Z,100605.61
2019-05-21T19:30:25.267Z,100600.56
2019-05-21T19:32:56.817Z,100612.02
2019-05-21T19:35:28.389Z,100604.80
2019-05-21T19:38:00.077Z,100609.77
2019-05-21T19:40:31.564Z,100605.78
2019-05-21T19:43:03.092Z,100603.42
2019-05-21T19:45:34.510Z,100603.42
2019-05-21T19:48:06.152Z,100606.30
2019-05-21T19:50:37.734Z,100606.31
2019-05-21T19:53:09.337Z,100605.75
2019-05-21T19:55:41.201Z,100602.77
2019-05-21T19:58:12.779Z,100602.27
2019-05-21T20:00:49.090Z,100604.88
2019-05-21T20:03:31.691Z,100605.75
2019-05-21T20:06:05.567Z,100605.77
2019-05-21T20:08:37.031Z,100598.56
2019-05-21T20:11:09.350Z,100597.83
2019-05-21T20:13:40.853Z,100595.39
2019-05-21T20:16:13.157Z,100593.80
2019-05-21T20:18:44.379Z,100593.83
2019-05-21T20:21:16.981Z,100588.74
2019-05-21T20:23:48.855Z,100593.52
2019-05-21T20:26:22.184Z,100587.05
2019-05-21T20:28:54.233Z,100584.92
2019-05-21T20:31:25.943Z,100577.72
2019-05-21T20:33:58.042Z,100576.86
2019-05-21T20:36:29.807Z,100592.45
2019-05-21T20:39:01.144Z,100590.31
2019-05-21T20:41:35.619Z,100590.53
2019-05-21T20:44:09.853Z,100580.39
2019-05-21T20:46:42.612Z,100585.90
2019-05-21T20:49:14.297Z,100590.86
2019-05-21T20:51:46.037Z,100586.22
2019-05-21T20:54:19.438Z,100589.90
2019-05-21T20:56:50.666Z,100599.86
2019-05-21T20:59:21.884Z,100600.41
2019-05-21T21:01:53.272Z,100595.22
2019-05-21T21:04:24.778Z,100595.73
2019-05-21T21:06:56.369Z,100588.97
2019-05-21T21:09:28.333Z,100594.67
2019-05-21T21:11:59.531Z,100588.11
2019-05-21T21:14:31.912Z,100588.56
2019-05-21T21:17:03.246Z,100581.86
2019-05-21T21:19:34.765Z,100578.38
2019-05-21T21:22:06.595Z,100578.38
2019-05-21T21:24:38.781Z,100575.39
2019-05-21T21:27:10.616Z,100575.30
2019-05-21T21:29:42.014Z,100571.06
2019-05-21T21:32:14.119Z,100563.86
2019-05-21T21:34:46.047Z,100569.05
2019-05-21T21:37:17.459Z,100563.54
2019-05-21T21:39:49.732Z,100568.17
2019-05-21T21:42:21.406Z,100566.72
2019-05-21T21:44:53.799Z,100563.22
2019-05-21T21:47:26.064Z,100563.96
2019-05-21T21:49:58.489Z,100564.38
2019-05-21T21:52:30.740Z,100555.92
2019-05-21T21:55:02.621Z,100556.84
2019-05-21T21:57:34.001Z,100551.66
2019-05-21T22:00:32.973Z,100551.57
2019-05-21T22:03:07.957Z,100541.42
2019-05-21T22:05:39.770Z,100536.11
2019-05-21T22:08:11.649Z,100532.94
2019-05-21T22:10:45.765Z,100529.02
2019-05-21T22:13:16.667Z,100528.06
2019-05-21T22:15:48.233Z,100522.34
2019-05-21T22:18:20.283Z,100519.90
2019-05-21T22:20:51.639Z,100518.75
2019-05-21T22:23:23.409Z,100515.13
2019-05-21T22:25:54.772Z,100505.95
2019-05-21T22:28:26.438Z,100508.89
2019-05-21T22:30:57.774Z,100499.08
2019-05-21T22:33:30.569Z,100499.30
2019-05-21T22:36:01.942Z,100499.07
2019-05-21T22:38:33.386Z,100495.13
2019-05-21T22:41:05.021Z,100490.67
2019-05-21T22:43:36.258Z,100485.21
2019-05-21T22:46:07.598Z,100490.58
2019-05-21T22:48:40.806Z,100486.47
2019-05-21T22:51:12.532Z,100489.77
2019-05-21T22:53:44.007Z,100490.78
2019-05-21T22:56:15.379Z,100482.94
2019-05-21T22:58:46.859Z,100486.14
2019-05-21T23:01:19.326Z,100482.56
2019-05-21T23:03:50.845Z,100480.63
2019-05-21T23:06:22.095Z,100478.94
2019-05-21T23:08:53.428Z,100483.20
2019-05-21T23:11:24.686Z,100486.04
2019-05-21T23:13:56.134Z,100490.59
2019-05-21T23:16:28.383Z,100493.16
2019-05-21T23:19:05.330Z,100489.53
2019-05-21T23:21:42.496Z,100492.92
2019-05-21T23:24:15.847Z,100489.76
2019-05-21T23:26:47.325Z,100487.23
2019-05-21T23:29:19.023Z,100483.94
2019-05-21T23:31:51.350Z,100484.64
2019-05-21T23:34:24.716Z,100482.23
2019-05-21T23:36:57.658Z,100477.05
2019-05-21T23:39:30.707Z,100471.77
2019-05-21T23:42:02.824Z,100476.51
2019-05-21T23:44:34.707Z,100475.23
2019-05-21T23:47:08.624Z,100477.89
2019-05-21T23:49:39.994Z,100473.63
2019-05-21T23:52:11.574Z,100476.38
2019-05-21T23:54:42.632Z,100469.62
2019-05-21T23:57:16.478Z,100465.92
2019-05-21T23:59:48.014Z,100461.89
